sensor_id;sensor_type;location;lat;lon;timestamp;pressure;altitude;pressure_sealevel;temperature;humidity
75420;BME280;63998;52.488;13.428;2023-02-05T00:02:00;103473.72;;;2.07;59.74
75420;BME280;63998;52.488;13.428;2023-02-05T00:04:26;103468.59;;;2.07;59.06
75420;BME280;63998;52.488;13.428;2023-02-05T00:06:51;103476.44;;;2.08;59.20
75420;BME280;63998;52.488;13.428;2023-02-05T00:09:17;103481.41;;;2.07;59.05
75420;BME280;63998;52.488;13.428;2023-02-05T00:11:42;103476.78;;;2.13;61.29
75420;BME280;63998;52.488;13.428;2023-02-05T00:14:10;103477.47;;;2.00;59.56
75420;BME280;63998;52.488;13.428;2023-02-05T00:16:35;103478.34;;;2.01;60.03
75420;BME280;63998;52.488;13.428;2023-02-05T00:19:00;103471.13;;;1.85;58.62
75420;BME280;63998;52.488;13.428;2023-02-05T00:21:26;103476.47;;;1.88;59.55
75420;BME280;63998;52.488;13.428;2023-02-05T00:23:54;103482.22;;;1.96;61.54
75420;BME280;63998;52.488;13.428;2023-02-05T00:26:19;103476.31;;;2.07;61.97
75420;BME280;63998;52.488;13.428;2023-02-05T00:28:45;103477.31;;;2.09;62.82
75420;BME280;63998;52.488;13.428;2023-02-05T00:31:18;103470.88;;;2.14;63.55
75420;BME280;63998;52.488;13.428;2023-02-05T00:33:45;103463.19;;;2.14;63.16
75420;BME280;63998;52.488;13.428;2023-02-05T00:36:10;103459.06;;;2.16;62.70
75420;BME280;63998;52.488;13.428;2023-02-05T00:38:39;103460.66;;;2.04;60.90
75420;BME280;63998;52.488;13.428;2023-02-05T00:41:08;103456.88;;;1.89;60.86
75420;BME280;63998;52.488;13.428;2023-02-05T00:43:33;103463.53;;;1.97;63.75
75420;BME280;63998;52.488;13.428;2023-02-05T00:45:59;103466.31;;;2.00;62.66
75420;BME280;63998;52.488;13.428;2023-02-05T00:48:27;103461.19;;;2.00;62.17
75420;BME280;63998;52.488;13.428;2023-02-05T00:50:53;103467.88;;;1.98;61.75
75420;BME280;63998;52.488;13.428;2023-02-05T00:53:19;103454.50;;;2.02;63.01
75420;BME280;63998;52.488;13.428;2023-02-05T00:55:45;103463.13;;;1.92;61.33
75420;BME280;63998;52.488;13.428;2023-02-05T00:58:11;103451.47;;;1.86;62.33
75420;BME280;63998;52.488;13.428;2023-02-05T01:00:37;103443.84;;;1.75;60.87
75420;BME280;63998;52.488;13.428;2023-02-05T01:03:04;103449.22;;;1.78;63.66
75420;BME280;63998;52.488;13.428;2023-02-05T01:05:30;103444.97;;;1.79;63.04
75420;BME280;63998;52.488;13.428;2023-02-05T01:07:56;103438.44;;;1.83;61.99
75420;BME280;63998;52.488;13.428;2023-02-05T01:10:21;103439.47;;;1.74;61.35
75420;BME280;63998;52.488;13.428;2023-02-05T01:12:49;103434.13;;;1.61;60.42
75420;BME280;63998;52.488;13.428;2023-02-05T01:15:18;103432.09;;;1.57;61.28
75420;BME280;63998;52.488;13.428;2023-02-05T01:17:44;103425.69;;;1.62;63.13
75420;BME280;63998;52.488;13.428;2023-02-05T01:20:12;103431.28;;;1.78;65.34
75420;BME280;63998;52.488;13.428;2023-02-05T01:22:38;103413.75;;;1.73;63.89
75420;BME280;63998;52.488;13.428;2023-02-05T01:25:04;103411.97;;;1.72;63.89
75420;BME280;63998;52.488;13.428;2023-02-05T01:27:35;103414.63;;;1.84;64.49
75420;BME280;63998;52.488;13.428;2023-02-05T01:30:01;103407.06;;;1.75;62.79
75420;BME280;63998;52.488;13.428;2023-02-05T01:32:29;103405.41;;;1.75;63.45
75420;BME280;63998;52.488;13.428;2023-02-05T01:34:56;103414.38;;;1.80;63.33
75420;BME280;63998;52.488;13.428;2023-02-05T01:37:22;103410.47;;;1.86;64.11
75420;BME280;63998;52.488;13.428;2023-02-05T01:39:52;103405.13;;;1.83;64.44
75420;BME280;63998;52.488;13.428;2023-02-05T01:42:22;103403.88;;;1.77;63.42
75420;BME280;63998;52.488;13.428;2023-02-05T01:50:18;103401.44;;;0.66;58.65
75420;BME280;63998;52.488;13.428;2023-02-05T01:52:45;103408.78;;;0.22;59.01
75420;BME280;63998;52.488;13.428;2023-02-05T01:55:11;103401.31;;;0.15;63.01
75420;BME280;63998;52.488;13.428;2023-02-05T01:57:37;103389.56;;;0.17;64.09
75420;BME280;63998;52.488;13.428;2023-02-05T02:00:08;103378.84;;;0.11;61.35
75420;BME280;63998;52.488;13.428;2023-02-05T02:02:39;103384.13;;;-0.06;61.56
75420;BME280;63998;52.488;13.428;2023-02-05T02:05:13;103391.44;;;-0.29;61.07
75420;BME280;63998;52.488;13.428;2023-02-05T02:07:41;103388.53;;;-0.53;61.49
75420;BME280;63998;52.488;13.428;2023-02-05T02:10:11;103382.84;;;-0.59;62.67
75420;BME280;63998;52.488;13.428;2023-02-05T02:12:40;103383.03;;;-0.76;62.83
75420;BME280;63998;52.488;13.428;2023-02-05T02:15:16;103383.28;;;-0.73;62.62
75420;BME280;63998;52.488;13.428;2023-02-05T02:17:45;103366.03;;;-0.94;62.70
75420;BME280;63998;52.488;13.428;2023-02-05T02:20:18;103364.66;;;-1.10;63.22
75420;BME280;63998;52.488;13.428;2023-02-05T02:33:25;103362.69;;;-1.31;64.74
75420;BME280;63998;52.488;13.428;2023-02-05T02:36:02;103356.53;;;-1.52;65.75
75420;BME280;63998;52.488;13.428;2023-02-05T02:38:34;103351.47;;;-1.60;66.06
75420;BME280;63998;52.488;13.428;2023-02-05T02:41:13;103348.56;;;-1.73;66.80
75420;BME280;63998;52.488;13.428;2023-02-05T02:43:54;103341.84;;;-1.82;67.39
75420;BME280;63998;52.488;13.428;2023-02-05T02:46:29;103334.09;;;-1.92;67.87
75420;BME280;63998;52.488;13.428;2023-02-05T02:49:00;103341.44;;;-1.95;68.16
75420;BME280;63998;52.488;13.428;2023-02-05T02:51:27;103346.53;;;-1.95;68.45
75420;BME280;63998;52.488;13.428;2023-02-05T02:53:55;103346.00;;;-2.18;69.12
75420;BME280;63998;52.488;13.428;2023-02-05T02:56:23;103347.53;;;-2.29;69.19
75420;BME280;63998;52.488;13.428;2023-02-05T02:58:53;103346.34;;;-2.32;69.61
75420;BME280;63998;52.488;13.428;2023-02-05T03:01:24;103347.84;;;-2.34;69.56
75420;BME280;63998;52.488;13.428;2023-02-05T03:03:57;103345.16;;;-2.27;69.76
75420;BME280;63998;52.488;13.428;2023-02-05T03:06:25;103340.06;;;-2.27;69.65
75420;BME280;63998;52.488;13.428;2023-02-05T03:08:59;103340.66;;;-2.30;69.47
75420;BME280;63998;52.488;13.428;2023-02-05T03:11:28;103345.16;;;-2.27;69.69
75420;BME280;63998;52.488;13.428;2023-02-05T03:13:55;103348.56;;;-2.18;69.74
75420;BME280;63998;52.488;13.428;2023-02-05T03:16:25;103343.31;;;-2.20;69.96
75420;BME280;63998;52.488;13.428;2023-02-05T03:18:51;103342.25;;;-2.13;69.56
75420;BME280;63998;52.488;13.428;2023-02-05T03:21:41;103337.63;;;-2.17;69.17
75420;BME280;63998;52.488;13.428;2023-02-05T03:24:08;103342.72;;;-2.17;69.44
75420;BME280;63998;52.488;13.428;2023-02-05T03:26:34;103347.47;;;-2.03;69.82
75420;BME280;63998;52.488;13.428;2023-02-05T03:29:04;103343.88;;;-2.05;69.37
75420;BME280;63998;52.488;13.428;2023-02-05T03:43:14;103336.22;;;-2.05;68.94
75420;BME280;63998;52.488;13.428;2023-02-05T03:45:50;103340.56;;;-2.04;69.51
75420;BME280;63998;52.488;13.428;2023-02-05T03:48:33;103335.78;;;-2.01;69.17
75420;BME280;63998;52.488;13.428;2023-02-05T03:53:54;103339.09;;;-2.02;69.46
75420;BME280;63998;52.488;13.428;2023-02-05T03:56:30;103346.22;;;-1.98;69.89
75420;BME280;63998;52.488;13.428;2023-02-05T03:58:59;103338.78;;;-2.05;69.33
75420;BME280;63998;52.488;13.428;2023-02-05T04:01:26;103339.22;;;-2.09;69.24
75420;BME280;63998;52.488;13.428;2023-02-05T04:03:52;103345.38;;;-2.07;69.49
75420;BME280;63998;52.488;13.428;2023-02-05T04:06:19;103352.81;;;-1.91;69.60
75420;BME280;63998;52.488;13.428;2023-02-05T04:08:45;103357.13;;;-1.82;70.62
75420;BME280;63998;52.488;13.428;2023-02-05T04:11:10;103355.41;;;-1.72;70.11
75420;BME280;63998;52.488;13.428;2023-02-05T04:13:38;103364.69;;;-1.64;69.70
75420;BME280;63998;52.488;13.428;2023-02-05T04:16:04;103366.38;;;-1.46;70.29
75420;BME280;63998;52.488;13.428;2023-02-05T04:18:29;103371.72;;;-1.34;70.68
75420;BME280;63998;52.488;13.428;2023-02-05T04:20:57;103366.84;;;-1.23;71.01
75420;BME280;63998;52.488;13.428;2023-02-05T04:23:25;103374.41;;;-1.33;68.28
75420;BME280;63998;52.488;13.428;2023-02-05T04:25:52;103369.28;;;-1.24;69.61
75420;BME280;63998;52.488;13.428;2023-02-05T04:28:18;103371.56;;;-1.36;67.87
75420;BME280;63998;52.488;13.428;2023-02-05T04:30:43;103375.19;;;-1.61;67.49
75420;BME280;63998;52.488;13.428;2023-02-05T04:33:09;103370.84;;;-1.71;67.11
75420;BME280;63998;52.488;13.428;2023-02-05T04:35:34;103371.84;;;-1.60;68.86
75420;BME280;63998;52.488;13.428;2023-02-05T04:38:05;103361.63;;;-1.52;68.63
75420;BME280;63998;52.488;13.428;2023-02-05T04:40:32;103362.31;;;-1.44;68.48
75420;BME280;63998;52.488;13.428;2023-02-05T04:43:00;103356.53;;;-1.24;68.73
75420;BME280;63998;52.488;13.428;2023-02-05T04:45:30;103363.06;;;-1.18;68.50
75420;BME280;63998;52.488;13.428;2023-02-05T04:47:59;103366.84;;;-1.23;67.42
75420;BME280;63998;52.488;13.428;2023-02-05T04:50:27;103360.50;;;-1.18;67.54
75420;BME280;63998;52.488;13.428;2023-02-05T04:52:52;103357.88;;;-1.28;66.07
75420;BME280;63998;52.488;13.428;2023-02-05T04:55:17;103348.72;;;-1.26;66.09
75420;BME280;63998;52.488;13.428;2023-02-05T04:57:43;103349.84;;;-1.14;66.93
75420;BME280;63998;52.488;13.428;2023-02-05T05:00:11;103347.56;;;-1.11;67.09
75420;BME280;63998;52.488;13.428;2023-02-05T05:02:39;103339.44;;;-1.06;66.84
75420;BME280;63998;52.488;13.428;2023-02-05T05:05:04;103352.81;;;-0.90;67.87
75420;BME280;63998;52.488;13.428;2023-02-05T05:07:31;103348.66;;;-0.98;65.62
75420;BME280;63998;52.488;13.428;2023-02-05T05:09:56;103356.81;;;-1.02;65.03
75420;BME280;63998;52.488;13.428;2023-02-05T05:12:24;103352.00;;;-0.99;66.53
75420;BME280;63998;52.488;13.428;2023-02-05T05:14:52;103362.25;;;-1.08;65.51
75420;BME280;63998;52.488;13.428;2023-02-05T05:17:17;103343.63;;;-1.07;65.80
75420;BME280;63998;52.488;13.428;2023-02-05T05:19:44;103346.25;;;-0.97;66.05
75420;BME280;63998;52.488;13.428;2023-02-05T05:22:10;103345.91;;;-0.91;65.81
75420;BME280;63998;52.488;13.428;2023-02-05T05:24:37;103333.91;;;-0.92;65.08
75420;BME280;63998;52.488;13.428;2023-02-05T05:27:05;103341.72;;;-0.91;65.21
75420;BME280;63998;52.488;13.428;2023-02-05T05:29:30;103345.09;;;-1.00;65.43
75420;BME280;63998;52.488;13.428;2023-02-05T05:31:58;103343.84;;;-0.95;65.75
75420;BME280;63998;52.488;13.428;2023-02-05T05:34:26;103342.00;;;-0.88;66.84
75420;BME280;63998;52.488;13.428;2023-02-05T05:36:51;103346.25;;;-0.78;66.63
75420;BME280;63998;52.488;13.428;2023-02-05T05:39:18;103361.06;;;-0.74;65.54
75420;BME280;63998;52.488;13.428;2023-02-05T05:42:02;103366.31;;;-0.54;66.66
75420;BME280;63998;52.488;13.428;2023-02-05T05:44:47;103364.34;;;-0.38;66.46
75420;BME280;63998;52.488;13.428;2023-02-05T05:47:16;103365.88;;;-0.40;64.82
75420;BME280;63998;52.488;13.428;2023-02-05T05:49:45;103368.16;;;-0.43;64.46
75420;BME280;63998;52.488;13.428;2023-02-05T05:52:13;103373.78;;;-0.37;65.73
75420;BME280;63998;52.488;13.428;2023-02-05T05:54:39;103381.91;;;-0.51;64.25
75420;BME280;63998;52.488;13.428;2023-02-05T05:57:05;103377.13;;;-0.38;67.70
75420;BME280;63998;52.488;13.428;2023-02-05T05:59:31;103370.59;;;-0.34;66.76
75420;BME280;63998;52.488;13.428;2023-02-05T06:02:02;103366.06;;;-0.47;64.12
75420;BME280;63998;52.488;13.428;2023-02-05T06:04:28;103359.03;;;-0.78;63.92
75420;BME280;63998;52.488;13.428;2023-02-05T06:06:53;103353.16;;;-0.96;64.25
75420;BME280;63998;52.488;13.428;2023-02-05T06:09:22;103357.91;;;-0.90;65.08
75420;BME280;63998;52.488;13.428;2023-02-05T06:11:50;103355.00;;;-1.03;65.19
75420;BME280;63998;52.488;13.428;2023-02-05T06:14:16;103350.19;;;-1.00;65.23
75420;BME280;63998;52.488;13.428;2023-02-05T06:16:43;103353.22;;;-1.04;65.26
75420;BME280;63998;52.488;13.428;2023-02-05T06:19:09;103354.53;;;-0.81;67.44
75420;BME280;63998;52.488;13.428;2023-02-05T06:21:34;103358.50;;;-0.74;66.27
75420;BME280;63998;52.488;13.428;2023-02-05T06:23:59;103354.84;;;-0.86;65.15
75420;BME280;63998;52.488;13.428;2023-02-05T06:26:27;103352.72;;;-0.82;65.21
75420;BME280;63998;52.488;13.428;2023-02-05T06:28:52;103352.41;;;-0.76;66.07
75420;BME280;63998;52.488;13.428;2023-02-05T06:31:26;103355.34;;;-0.53;66.04
75420;BME280;63998;52.488;13.428;2023-02-05T06:33:51;103348.38;;;-0.64;64.55
75420;BME280;63998;52.488;13.428;2023-02-05T06:36:16;103341.50;;;-0.65;64.70
75420;BME280;63998;52.488;13.428;2023-02-05T06:38:41;103345.97;;;-0.33;66.85
75420;BME280;63998;52.488;13.428;2023-02-05T06:41:07;103345.22;;;-0.32;65.59
75420;BME280;63998;52.488;13.428;2023-02-05T06:43:32;103344.78;;;-0.08;68.09
75420;BME280;63998;52.488;13.428;2023-02-05T06:45:57;103347.03;;;-0.21;66.21
75420;BME280;63998;52.488;13.428;2023-02-05T06:48:23;103345.25;;;-0.22;65.23
75420;BME280;63998;52.488;13.428;2023-02-05T06:50:48;103344.72;;;-0.28;64.66
75420;BME280;63998;52.488;13.428;2023-02-05T06:53:13;103345.75;;;-0.26;65.26
75420;BME280;63998;52.488;13.428;2023-02-05T06:55:39;103354.03;;;-0.29;65.34
75420;BME280;63998;52.488;13.428;2023-02-05T06:58:07;103353.44;;;-0.26;66.99
75420;BME280;63998;52.488;13.428;2023-02-05T07:00:33;103363.63;;;-0.26;65.75
75420;BME280;63998;52.488;13.428;2023-02-05T07:03:00;103359.78;;;-0.31;66.02
75420;BME280;63998;52.488;13.428;2023-02-05T07:05:26;103363.88;;;-0.23;66.67
75420;BME280;63998;52.488;13.428;2023-02-05T07:07:51;103369.38;;;-0.29;65.93
75420;BME280;63998;52.488;13.428;2023-02-05T07:10:17;103378.41;;;-0.32;65.05
75420;BME280;63998;52.488;13.428;2023-02-05T07:12:44;103375.09;;;-0.31;64.58
75420;BME280;63998;52.488;13.428;2023-02-05T07:15:10;103371.78;;;-0.30;64.87
75420;BME280;63998;52.488;13.428;2023-02-05T07:17:35;103385.47;;;-0.49;64.22
75420;BME280;63998;52.488;13.428;2023-02-05T07:20:01;103381.56;;;-0.64;64.08
75420;BME280;63998;52.488;13.428;2023-02-05T07:22:26;103363.22;;;-0.79;65.41
75420;BME280;63998;52.488;13.428;2023-02-05T07:24:54;103355.16;;;-0.83;66.24
75420;BME280;63998;52.488;13.428;2023-02-05T07:27:22;103357.88;;;-0.53;68.26
75420;BME280;63998;52.488;13.428;2023-02-05T07:29:48;103348.91;;;-0.58;66.11
75420;BME280;63998;52.488;13.428;2023-02-05T07:32:15;103357.09;;;-0.62;64.55
75420;BME280;63998;52.488;13.428;2023-02-05T07:34:41;103348.81;;;-0.49;65.03
75420;BME280;63998;52.488;13.428;2023-02-05T07:37:10;103353.69;;;-0.52;64.56
75420;BME280;63998;52.488;13.428;2023-02-05T07:39:35;103353.88;;;-0.41;65.50
75420;BME280;63998;52.488;13.428;2023-02-05T07:42:01;103360.03;;;-0.28;66.93
75420;BME280;63998;52.488;13.428;2023-02-05T07:44:26;103352.94;;;-0.12;65.47
75420;BME280;63998;52.488;13.428;2023-02-05T07:46:51;103347.22;;;-0.10;65.73
75420;BME280;63998;52.488;13.428;2023-02-05T07:49:19;103349.44;;;0.06;66.29
75420;BME280;63998;52.488;13.428;2023-02-05T07:51:44;103338.94;;;0.03;64.90
75420;BME280;63998;52.488;13.428;2023-02-05T07:54:11;103331.06;;;0.10;65.77
75420;BME280;63998;52.488;13.428;2023-02-05T07:56:38;103326.19;;;0.13;63.82
75420;BME280;63998;52.488;13.428;2023-02-05T07:59:07;103331.81;;;-0.01;63.89
75420;BME280;63998;52.488;13.428;2023-02-05T08:01:35;103332.03;;;0.02;63.86
75420;BME280;63998;52.488;13.428;2023-02-05T08:04:01;103335.03;;;0.27;65.44
75420;BME280;63998;52.488;13.428;2023-02-05T08:06:33;103324.84;;;0.47;67.73
75420;BME280;63998;52.488;13.428;2023-02-05T08:09:01;103331.63;;;0.57;67.33
75420;BME280;63998;52.488;13.428;2023-02-05T08:11:26;103329.28;;;0.29;64.15
75420;BME280;63998;52.488;13.428;2023-02-05T08:13:52;103329.03;;;0.26;64.69
75420;BME280;63998;52.488;13.428;2023-02-05T08:16:17;103334.41;;;0.50;67.88
75420;BME280;63998;52.488;13.428;2023-02-05T08:18:47;103344.13;;;0.64;66.68
75420;BME280;63998;52.488;13.428;2023-02-05T08:21:13;103332.13;;;0.63;66.73
75420;BME280;63998;52.488;13.428;2023-02-05T08:23:38;103326.50;;;0.57;64.37
75420;BME280;63998;52.488;13.428;2023-02-05T08:26:06;103320.38;;;0.65;66.61
75420;BME280;63998;52.488;13.428;2023-02-05T08:28:31;103310.41;;;0.68;64.64
75420;BME280;63998;52.488;13.428;2023-02-05T08:30:59;103319.47;;;0.85;66.03
75420;BME280;63998;52.488;13.428;2023-02-05T08:33:27;103314.97;;;0.92;67.35
75420;BME280;63998;52.488;13.428;2023-02-05T08:35:52;103317.00;;;1.06;64.97
75420;BME280;63998;52.488;13.428;2023-02-05T08:38:18;103304.69;;;1.23;66.76
75420;BME280;63998;52.488;13.428;2023-02-05T08:40:43;103310.81;;;1.25;65.58
75420;BME280;63998;52.488;13.428;2023-02-05T08:43:09;103316.81;;;1.35;65.51
75420;BME280;63998;52.488;13.428;2023-02-05T08:45:34;103317.19;;;1.30;63.73
75420;BME280;63998;52.488;13.428;2023-02-05T08:48:02;103316.09;;;1.06;61.09
75420;BME280;63998;52.488;13.428;2023-02-05T08:50:27;103320.16;;;1.14;63.26
75420;BME280;63998;52.488;13.428;2023-02-05T08:52:53;103317.78;;;1.05;61.45
75420;BME280;63998;52.488;13.428;2023-02-05T08:55:18;103319.81;;;0.99;61.82
75420;BME280;63998;52.488;13.428;2023-02-05T08:57:44;103314.06;;;1.02;62.76
75420;BME280;63998;52.488;13.428;2023-02-05T09:00:10;103316.38;;;1.09;63.02
75420;BME280;63998;52.488;13.428;2023-02-05T09:02:35;103310.72;;;1.03;61.46
75420;BME280;63998;52.488;13.428;2023-02-05T09:05:00;103307.03;;;0.99;60.97
75420;BME280;63998;52.488;13.428;2023-02-05T09:07:26;103306.50;;;1.03;61.97
75420;BME280;63998;52.488;13.428;2023-02-05T09:09:51;103312.13;;;1.20;63.53
75420;BME280;63998;52.488;13.428;2023-02-05T09:12:17;103310.84;;;1.15;63.82
75420;BME280;63998;52.488;13.428;2023-02-05T09:14:43;103308.50;;;1.28;63.20
75420;BME280;63998;52.488;13.428;2023-02-05T09:17:09;103312.59;;;1.36;63.27
75420;BME280;63998;52.488;13.428;2023-02-05T09:19:40;103309.47;;;1.40;61.82
75420;BME280;63998;52.488;13.428;2023-02-05T09:22:06;103310.47;;;1.52;63.82
75420;BME280;63998;52.488;13.428;2023-02-05T09:24:32;103311.94;;;1.70;65.26
75420;BME280;63998;52.488;13.428;2023-02-05T09:26:58;103310.41;;;1.72;62.74
75420;BME280;63998;52.488;13.428;2023-02-05T09:29:24;103307.56;;;1.69;62.42
75420;BME280;63998;52.488;13.428;2023-02-05T09:31:49;103309.47;;;1.40;60.26
75420;BME280;63998;52.488;13.428;2023-02-05T09:34:19;103314.09;;;1.44;61.29
75420;BME280;63998;52.488;13.428;2023-02-05T09:36:44;103318.19;;;1.42;61.80
75420;BME280;63998;52.488;13.428;2023-02-05T09:39:10;103314.44;;;1.49;62.00
75420;BME280;63998;52.488;13.428;2023-02-05T09:44:56;103313.63;;;1.28;59.55
75420;BME280;63998;52.488;13.428;2023-02-05T09:47:31;103318.19;;;1.42;62.99
75420;BME280;63998;52.488;13.428;2023-02-05T09:50:21;103315.25;;;1.69;64.88
75420;BME280;63998;52.488;13.428;2023-02-05T09:53:15;103314.91;;;1.87;66.17
75420;BME280;63998;52.488;13.428;2023-02-05T09:55:41;103321.84;;;2.09;66.63
75420;BME280;63998;52.488;13.428;2023-02-05T09:58:15;103316.44;;;2.28;63.40
75420;BME280;63998;52.488;13.428;2023-02-05T10:00:50;103312.78;;;2.03;59.93
75420;BME280;63998;52.488;13.428;2023-02-05T10:03:22;103305.44;;;2.07;60.53
75420;BME280;63998;52.488;13.428;2023-02-05T10:08:28;103308.97;;;1.98;58.62
75420;BME280;63998;52.488;13.428;2023-02-05T10:10:58;103303.75;;;2.30;64.53
75420;BME280;63998;52.488;13.428;2023-02-05T10:13:33;103308.53;;;2.59;64.94
75420;BME280;63998;52.488;13.428;2023-02-05T10:18:52;103299.63;;;2.77;59.60
75420;BME280;63998;52.488;13.428;2023-02-05T10:24:31;103287.41;;;2.51;56.34
75420;BME280;63998;52.488;13.428;2023-02-05T10:27:20;103285.81;;;2.30;56.75
75420;BME280;63998;52.488;13.428;2023-02-05T10:37:58;103265.91;;;2.61;64.03
75420;BME280;63998;52.488;13.428;2023-02-05T10:40:30;103266.25;;;2.53;58.50
75420;BME280;63998;52.488;13.428;2023-02-05T10:43:04;103259.72;;;2.80;62.26
75420;BME280;63998;52.488;13.428;2023-02-05T10:45:39;103259.06;;;3.06;63.31
75420;BME280;63998;52.488;13.428;2023-02-05T10:51:05;103263.72;;;3.00;58.88
75420;BME280;63998;52.488;13.428;2023-02-05T10:53:31;103261.94;;;2.99;58.98
75420;BME280;63998;52.488;13.428;2023-02-05T10:56:02;103257.22;;;2.59;56.12
75420;BME280;63998;52.488;13.428;2023-02-05T11:01:14;103252.66;;;2.78;57.56
75420;BME280;63998;52.488;13.428;2023-02-05T11:03:48;103244.53;;;3.07;62.57
75420;BME280;63998;52.488;13.428;2023-02-05T11:06:15;103240.59;;;3.23;61.96
75420;BME280;63998;52.488;13.428;2023-02-05T11:08:42;103236.44;;;3.49;60.90
75420;BME280;63998;52.488;13.428;2023-02-05T11:11:27;103229.25;;;3.68;60.67
75420;BME280;63998;52.488;13.428;2023-02-05T11:13:56;103236.00;;;3.43;56.45
75420;BME280;63998;52.488;13.428;2023-02-05T11:16:33;103234.91;;;3.28;55.52
75420;BME280;63998;52.488;13.428;2023-02-05T11:19:02;103241.84;;;3.17;56.48
75420;BME280;63998;52.488;13.428;2023-02-05T11:21:58;103245.88;;;3.02;55.10
75420;BME280;63998;52.488;13.428;2023-02-05T11:27:32;103246.69;;;3.49;61.69
75420;BME280;63998;52.488;13.428;2023-02-05T11:30:16;103246.75;;;3.25;55.33
75420;BME280;63998;52.488;13.428;2023-02-05T11:32:45;103245.22;;;2.93;54.97
75420;BME280;63998;52.488;13.428;2023-02-05T11:35:17;103238.81;;;3.22;59.17
75420;BME280;63998;52.488;13.428;2023-02-05T11:37:44;103234.94;;;3.04;56.32
75420;BME280;63998;52.488;13.428;2023-02-05T11:40:22;103236.00;;;3.43;59.33
75420;BME280;63998;52.488;13.428;2023-02-05T11:45:52;103229.56;;;3.97;59.58
75420;BME280;63998;52.488;13.428;2023-02-05T11:48:38;103222.66;;;3.85;55.73
75420;BME280;63998;52.488;13.428;2023-02-05T11:51:07;103239.16;;;3.75;54.24
75420;BME280;63998;52.488;13.428;2023-02-05T11:53:37;103236.75;;;3.90;56.08
75420;BME280;63998;52.488;13.428;2023-02-05T11:56:10;103233.56;;;3.44;53.37
75420;BME280;63998;52.488;13.428;2023-02-05T11:59:01;103238.66;;;3.56;55.69
75420;BME280;63998;52.488;13.428;2023-02-05T12:01:31;103235.88;;;3.53;55.29
75420;BME280;63998;52.488;13.428;2023-02-05T12:04:09;103241.03;;;3.41;54.07
75420;BME280;63998;52.488;13.428;2023-02-05T12:06:51;103233.56;;;3.33;53.86
75420;BME280;63998;52.488;13.428;2023-02-05T12:09:22;103230.88;;;3.43;54.79
75420;BME280;63998;52.488;13.428;2023-02-05T12:12:02;103226.03;;;3.84;57.25
75420;BME280;63998;52.488;13.428;2023-02-05T12:17:56;103232.66;;;4.05;54.01
75420;BME280;63998;52.488;13.428;2023-02-05T12:20:55;103226.56;;;3.91;52.71
75420;BME280;63998;52.488;13.428;2023-02-05T12:28:54;103223.22;;;3.92;53.46
75420;BME280;63998;52.488;13.428;2023-02-05T12:45:37;103213.84;;;5.50;56.20
75420;BME280;63998;52.488;13.428;2023-02-05T12:59:04;103207.75;;;5.08;49.54
75420;BME280;63998;52.488;13.428;2023-02-05T13:01:46;103213.91;;;4.97;49.50
75420;BME280;63998;52.488;13.428;2023-02-05T13:04:25;103219.25;;;5.00;49.98
75420;BME280;63998;52.488;13.428;2023-02-05T13:06:57;103228.97;;;5.17;51.33
75420;BME280;63998;52.488;13.428;2023-02-05T13:09:31;103228.84;;;5.70;50.56
75420;BME280;63998;52.488;13.428;2023-02-05T13:12:07;103226.69;;;6.19;52.30
75420;BME280;63998;52.488;13.428;2023-02-05T13:14:41;103227.97;;;6.40;50.70
75420;BME280;63998;52.488;13.428;2023-02-05T13:17:23;103223.72;;;6.55;48.03
75420;BME280;63998;52.488;13.428;2023-02-05T13:19:59;103228.41;;;5.90;45.70
75420;BME280;63998;52.488;13.428;2023-02-05T13:22:33;103230.88;;;6.17;46.05
75420;BME280;63998;52.488;13.428;2023-02-05T13:25:24;103225.47;;;6.56;45.90
75420;BME280;63998;52.488;13.428;2023-02-05T13:27:57;103221.88;;;6.83;44.68
75420;BME280;63998;52.488;13.428;2023-02-05T13:30:47;103217.94;;;7.05;44.34
75420;BME280;63998;52.488;13.428;2023-02-05T13:33:15;103223.84;;;6.88;44.01
75420;BME280;63998;52.488;13.428;2023-02-05T13:35:47;103223.69;;;6.84;44.69
75420;BME280;63998;52.488;13.428;2023-02-05T13:55:09;103264.97;;;7.76;42.98
75420;BME280;63998;52.488;13.428;2023-02-05T13:58:20;103262.53;;;7.63;40.99
75420;BME280;63998;52.488;13.428;2023-02-05T14:01:00;103254.16;;;7.99;40.63
75420;BME280;63998;52.488;13.428;2023-02-05T14:03:36;103238.09;;;8.22;39.47
75420;BME280;63998;52.488;13.428;2023-02-05T14:06:27;103248.31;;;8.19;40.32
75420;BME280;63998;52.488;13.428;2023-02-05T14:09:08;103235.22;;;8.00;39.38
75420;BME280;63998;52.488;13.428;2023-02-05T14:11:54;103241.34;;;8.18;40.02
75420;BME280;63998;52.488;13.428;2023-02-05T14:14:35;103234.22;;;8.47;39.06
75420;BME280;63998;52.488;13.428;2023-02-05T14:19:53;103221.53;;;9.05;41.02
75420;BME280;63998;52.488;13.428;2023-02-05T14:22:36;103227.22;;;9.52;40.05
75420;BME280;63998;52.488;13.428;2023-02-05T14:25:03;103229.31;;;9.59;37.44
75420;BME280;63998;52.488;13.428;2023-02-05T14:35:33;103214.81;;;10.03;38.40
75420;BME280;63998;52.488;13.428;2023-02-05T14:38:22;103201.97;;;10.06;38.02
75420;BME280;63998;52.488;13.428;2023-02-05T14:41:07;103197.09;;;9.73;36.91
75420;BME280;63998;52.488;13.428;2023-02-05T14:43:37;103189.44;;;9.77;36.86
75420;BME280;63998;52.488;13.428;2023-02-05T14:46:05;103186.16;;;10.00;37.03
75420;BME280;63998;52.488;13.428;2023-02-05T14:48:35;103184.34;;;10.37;36.64
75420;BME280;63998;52.488;13.428;2023-02-05T14:51:28;103186.75;;;10.74;35.38
75420;BME280;63998;52.488;13.428;2023-02-05T14:53:57;103191.78;;;11.14;35.55
75420;BME280;63998;52.488;13.428;2023-02-05T14:56:28;103185.59;;;11.33;34.28
75420;BME280;63998;52.488;13.428;2023-02-05T14:59:01;103190.59;;;11.51;33.35
75420;BME280;63998;52.488;13.428;2023-02-05T15:04:09;103201.13;;;11.09;33.69
75420;BME280;63998;52.488;13.428;2023-02-05T15:06:41;103198.00;;;11.18;34.03